Terminal Aerodrome Forecast
Issued by NWS

Home | Current Version | Previous Version | Text Only | Print | Product List | Glossary On
Versions: 1 2 3 4 5 6 7 8 9 10 11 12 13 14 15 16 17 18 19 20 21 22 23 24 25 26 27 28 29 30 31
000
FTUS41 KBUF 231700
TAFJHW
TAF
KJHW 231738Z 2318/2418 07006KT P6SM SCT025 BKN050
     FM232300 05006KT P6SM SCT015
     FM240500 13004KT P6SM SCT007
     FM240800 14004KT 1SM BR BKN007
     FM241200 14005KT 2SM BR SCT007
     FM241400 14008KT P6SM SCT250
      AMD LTD TO CLD VIS AND WIND=

USA.gov is the U.S. government's official web portal to all federal, state and local government web resources and services.